sensor_id;sensor_type;location;lat;lon;timestamp;pressure;altitude;pressure_sealevel;temperature;humidity
55456;BME280;63021;52.836;6.376;2022-11-02T00:00:11;101331.59;;;12.71;68.05
55456;BME280;63021;52.836;6.376;2022-11-02T00:02:37;101331.75;;;12.70;67.95
55456;BME280;63021;52.836;6.376;2022-11-02T00:05:02;101319.41;;;12.69;69.11
55456;BME280;63021;52.836;6.376;2022-11-02T00:07:28;101317.00;;;12.65;69.60
55456;BME280;63021;52.836;6.376;2022-11-02T00:09:53;101307.34;;;12.64;68.32
55456;BME280;63021;52.836;6.376;2022-11-02T00:12:18;101314.34;;;12.65;68.12
55456;BME280;63021;52.836;6.376;2022-11-02T00:14:44;101318.03;;;12.64;68.29
55456;BME280;63021;52.836;6.376;2022-11-02T00:17:09;101324.50;;;12.62;68.72
55456;BME280;63021;52.836;6.376;2022-11-02T00:19:34;101325.34;;;12.62;68.51
55456;BME280;63021;52.836;6.376;2022-11-02T00:21:59;101324.66;;;12.60;69.68
55456;BME280;63021;52.836;6.376;2022-11-02T00:24:26;101334.50;;;12.60;69.40
55456;BME280;63021;52.836;6.376;2022-11-02T00:26:52;101346.31;;;12.57;69.07
55456;BME280;63021;52.836;6.376;2022-11-02T00:29:17;101362.50;;;12.56;69.72
55456;BME280;63021;52.836;6.376;2022-11-02T00:31:44;101351.97;;;12.54;69.97
55456;BME280;63021;52.836;6.376;2022-11-02T00:34:10;101355.47;;;12.55;70.36
55456;BME280;63021;52.836;6.376;2022-11-02T00:36:35;101356.28;;;12.55;70.14
55456;BME280;63021;52.836;6.376;2022-11-02T00:39:00;101348.28;;;12.55;69.95
55456;BME280;63021;52.836;6.376;2022-11-02T00:41:25;101346.63;;;12.54;69.40
55456;BME280;63021;52.836;6.376;2022-11-02T00:43:51;101356.75;;;12.51;70.20
55456;BME280;63021;52.836;6.376;2022-11-02T00:46:16;101366.88;;;12.47;70.42
55456;BME280;63021;52.836;6.376;2022-11-02T00:48:41;101362.25;;;12.39;70.08
55456;BME280;63021;52.836;6.376;2022-11-02T00:51:06;101344.16;;;12.33;69.82
55456;BME280;63021;52.836;6.376;2022-11-02T00:53:32;101332.09;;;12.29;69.95
55456;BME280;63021;52.836;6.376;2022-11-02T00:55:57;101333.50;;;12.23;70.13
55456;BME280;63021;52.836;6.376;2022-11-02T00:58:22;101334.78;;;12.19;70.52
55456;BME280;63021;52.836;6.376;2022-11-02T01:00:48;101334.25;;;12.16;70.60
55456;BME280;63021;52.836;6.376;2022-11-02T01:03:13;101335.53;;;12.11;70.55
55456;BME280;63021;52.836;6.376;2022-11-02T01:05:38;101330.47;;;12.08;70.50
55456;BME280;63021;52.836;6.376;2022-11-02T01:08:04;101335.97;;;12.07;71.02
55456;BME280;63021;52.836;6.376;2022-11-02T01:10:29;101331.75;;;12.04;70.33
55456;BME280;63021;52.836;6.376;2022-11-02T01:12:54;101322.22;;;12.02;70.19
55456;BME280;63021;52.836;6.376;2022-11-02T01:15:19;101331.19;;;12.01;70.17
55456;BME280;63021;52.836;6.376;2022-11-02T01:17:45;101320.66;;;11.99;70.72
55456;BME280;63021;52.836;6.376;2022-11-02T01:20:10;101317.16;;;11.99;70.81
55456;BME280;63021;52.836;6.376;2022-11-02T01:22:35;101311.25;;;11.95;70.66
55456;BME280;63021;52.836;6.376;2022-11-02T01:25:01;101312.38;;;11.92;70.72
55456;BME280;63021;52.836;6.376;2022-11-02T01:27:26;101307.06;;;11.92;70.32
55456;BME280;63021;52.836;6.376;2022-11-02T01:29:51;101312.38;;;11.92;70.83
55456;BME280;63021;52.836;6.376;2022-11-02T01:32:16;101315.06;;;11.92;70.89
55456;BME280;63021;52.836;6.376;2022-11-02T01:34:42;101310.69;;;11.91;71.32
55456;BME280;63021;52.836;6.376;2022-11-02T01:37:07;101313.22;;;11.93;70.72
55456;BME280;63021;52.836;6.376;2022-11-02T01:39:32;101305.22;;;11.93;71.37
55456;BME280;63021;52.836;6.376;2022-11-02T01:41:58;101298.06;;;11.93;72.25
55456;BME280;63021;52.836;6.376;2022-11-02T01:44:30;101316.84;;;11.92;72.33
55456;BME280;63021;52.836;6.376;2022-11-02T01:49:41;101309.00;;;11.90;71.74
55456;BME280;63021;52.836;6.376;2022-11-02T01:52:08;101299.31;;;11.89;71.80
55456;BME280;63021;52.836;6.376;2022-11-02T01:54:46;101301.97;;;11.89;72.47
55456;BME280;63021;52.836;6.376;2022-11-02T01:57:13;101308.16;;;11.90;72.83
55456;BME280;63021;52.836;6.376;2022-11-02T02:02:27;101281.19;;;11.93;72.78
55456;BME280;63021;52.836;6.376;2022-11-02T02:04:56;101283.75;;;11.94;72.65
55456;BME280;63021;52.836;6.376;2022-11-02T02:07:23;101269.44;;;11.95;73.44
55456;BME280;63021;52.836;6.376;2022-11-02T02:09:50;101289.78;;;11.96;73.17
55456;BME280;63021;52.836;6.376;2022-11-02T02:12:16;101281.75;;;11.96;72.89
55456;BME280;63021;52.836;6.376;2022-11-02T02:14:43;101276.44;;;11.96;73.82
55456;BME280;63021;52.836;6.376;2022-11-02T02:19:43;101271.09;;;11.96;73.50
55456;BME280;63021;52.836;6.376;2022-11-02T02:32:12;101274.75;;;11.86;73.31
55456;BME280;63021;52.836;6.376;2022-11-02T02:34:53;101268.84;;;11.82;73.54
55456;BME280;63021;52.836;6.376;2022-11-02T02:37:36;101274.50;;;11.79;72.94
55456;BME280;63021;52.836;6.376;2022-11-02T02:40:04;101275.75;;;11.75;73.26
55456;BME280;63021;52.836;6.376;2022-11-02T02:47:29;101273.97;;;11.66;73.14
55456;BME280;63021;52.836;6.376;2022-11-02T02:49:57;101278.72;;;11.62;72.51
55456;BME280;63021;52.836;6.376;2022-11-02T02:52:25;101280.84;;;11.58;72.07
55456;BME280;63021;52.836;6.376;2022-11-02T02:54:51;101278.47;;;11.55;72.67
55456;BME280;63021;52.836;6.376;2022-11-02T02:57:17;101276.09;;;11.52;72.36
55456;BME280;63021;52.836;6.376;2022-11-02T02:59:44;101282.56;;;11.50;72.38
55456;BME280;63021;52.836;6.376;2022-11-02T03:02:19;101276.66;;;11.46;72.83
55456;BME280;63021;52.836;6.376;2022-11-02T03:04:45;101279.59;;;11.43;72.21
55456;BME280;63021;52.836;6.376;2022-11-02T03:07:11;101277.09;;;11.41;72.96
55456;BME280;63021;52.836;6.376;2022-11-02T03:09:48;101273.31;;;11.34;73.33
55456;BME280;63021;52.836;6.376;2022-11-02T03:17:24;101284.09;;;11.33;72.64
55456;BME280;63021;52.836;6.376;2022-11-02T03:24:51;101283.28;;;11.22;72.64
55456;BME280;63021;52.836;6.376;2022-11-02T03:27:24;101282.69;;;11.19;71.81
55456;BME280;63021;52.836;6.376;2022-11-02T03:35:21;101282.00;;;11.07;71.43
55456;BME280;63021;52.836;6.376;2022-11-02T03:37:51;101275.13;;;11.04;71.78
55456;BME280;63021;52.836;6.376;2022-11-02T03:40:25;101278.22;;;11.00;71.95
55456;BME280;63021;52.836;6.376;2022-11-02T03:42:53;101281.00;;;10.98;71.96
55456;BME280;63021;52.836;6.376;2022-11-02T03:45:21;101286.47;;;10.97;71.46
55456;BME280;63021;52.836;6.376;2022-11-02T03:47:52;101286.78;;;10.94;71.74
55456;BME280;63021;52.836;6.376;2022-11-02T03:50:19;101302.03;;;10.91;71.42
55456;BME280;63021;52.836;6.376;2022-11-02T03:52:46;101296.69;;;10.91;71.88
55456;BME280;63021;52.836;6.376;2022-11-02T03:55:13;101305.56;;;10.92;71.33
55456;BME280;63021;52.836;6.376;2022-11-02T03:57:43;101305.56;;;10.92;71.80
55456;BME280;63021;52.836;6.376;2022-11-02T04:00:13;101301.88;;;10.93;71.88
55456;BME280;63021;52.836;6.376;2022-11-02T04:02:40;101309.06;;;10.92;71.35
55456;BME280;63021;52.836;6.376;2022-11-02T04:05:07;101302.75;;;10.94;71.69
55456;BME280;63021;52.836;6.376;2022-11-02T04:07:33;101295.59;;;10.94;71.78
55456;BME280;63021;52.836;6.376;2022-11-02T04:10:19;101293.75;;;10.95;71.81
55456;BME280;63021;52.836;6.376;2022-11-02T04:12:44;101302.59;;;10.95;71.44
55456;BME280;63021;52.836;6.376;2022-11-02T04:15:28;101318.59;;;10.95;71.46
55456;BME280;63021;52.836;6.376;2022-11-02T04:17:53;101321.25;;;10.95;71.99
55456;BME280;63021;52.836;6.376;2022-11-02T04:20:37;101333.72;;;10.95;71.37
55456;BME280;63021;52.836;6.376;2022-11-02T04:23:02;101324.75;;;10.96;71.28
55456;BME280;63021;52.836;6.376;2022-11-02T04:25:51;101348.72;;;10.96;71.35
55456;BME280;63021;52.836;6.376;2022-11-02T04:28:16;101354.78;;;10.98;71.37
55456;BME280;63021;52.836;6.376;2022-11-02T04:30:41;101358.13;;;11.00;71.67
55456;BME280;63021;52.836;6.376;2022-11-02T04:33:07;101358.13;;;11.00;71.71
55456;BME280;63021;52.836;6.376;2022-11-02T04:35:51;101362.34;;;11.02;71.29
55456;BME280;63021;52.836;6.376;2022-11-02T04:38:16;101365.00;;;11.02;71.56
55456;BME280;63021;52.836;6.376;2022-11-02T04:41:00;101365.72;;;11.04;71.85
55456;BME280;63021;52.836;6.376;2022-11-02T04:43:43;101365.56;;;11.06;71.14
55456;BME280;63021;52.836;6.376;2022-11-02T04:46:09;101374.16;;;11.09;71.70
55456;BME280;63021;52.836;6.376;2022-11-02T04:48:34;101373.19;;;11.11;71.66
55456;BME280;63021;52.836;6.376;2022-11-02T04:50:59;101372.16;;;11.12;71.91
55456;BME280;63021;52.836;6.376;2022-11-02T04:53:24;101372.03;;;11.13;71.51
55456;BME280;63021;52.836;6.376;2022-11-02T04:55:50;101367.56;;;11.14;72.29
55456;BME280;63021;52.836;6.376;2022-11-02T04:58:15;101372.75;;;11.15;72.11
55456;BME280;63021;52.836;6.376;2022-11-02T05:00:40;101381.44;;;11.17;72.04
55456;BME280;63021;52.836;6.376;2022-11-02T05:03:06;101379.78;;;11.16;71.48
55456;BME280;63021;52.836;6.376;2022-11-02T05:05:32;101383.13;;;11.18;71.62
55456;BME280;63021;52.836;6.376;2022-11-02T05:07:57;101377.81;;;11.18;71.86
55456;BME280;63021;52.836;6.376;2022-11-02T05:10:22;101386.63;;;11.19;72.03
55456;BME280;63021;52.836;6.376;2022-11-02T05:12:48;101382.16;;;11.19;71.79
55456;BME280;63021;52.836;6.376;2022-11-02T05:15:19;101391.81;;;11.20;71.87
55456;BME280;63021;52.836;6.376;2022-11-02T05:17:46;101391.41;;;11.15;72.31
55456;BME280;63021;52.836;6.376;2022-11-02T05:20:12;101405.16;;;11.20;72.74
55456;BME280;63021;52.836;6.376;2022-11-02T05:22:39;101399.94;;;11.19;72.39
55456;BME280;63021;52.836;6.376;2022-11-02T05:25:05;101416.81;;;11.19;72.51
55456;BME280;63021;52.836;6.376;2022-11-02T05:27:30;101399.94;;;11.19;73.01
55456;BME280;63021;52.836;6.376;2022-11-02T05:29:55;101403.47;;;11.19;72.95
55456;BME280;63021;52.836;6.376;2022-11-02T05:32:20;101399.13;;;11.18;73.03
55456;BME280;63021;52.836;6.376;2022-11-02T05:34:46;101400.09;;;11.17;72.93
55456;BME280;63021;52.836;6.376;2022-11-02T05:37:11;101395.75;;;11.16;73.92
55456;BME280;63021;52.836;6.376;2022-11-02T05:39:36;101418.06;;;11.15;73.20
55456;BME280;63021;52.836;6.376;2022-11-02T05:42:02;101423.38;;;11.15;73.11
55456;BME280;63021;52.836;6.376;2022-11-02T05:44:28;101422.66;;;11.13;73.04
55456;BME280;63021;52.836;6.376;2022-11-02T05:46:54;101421.00;;;11.12;73.47
55456;BME280;63021;52.836;6.376;2022-11-02T05:49:19;101429.00;;;11.12;72.97
55456;BME280;63021;52.836;6.376;2022-11-02T05:51:44;101434.31;;;11.12;73.38
55456;BME280;63021;52.836;6.376;2022-11-02T05:54:09;101431.66;;;11.12;73.25
55456;BME280;63021;52.836;6.376;2022-11-02T05:56:34;101441.44;;;11.12;74.22
55456;BME280;63021;52.836;6.376;2022-11-02T05:59:00;101438.94;;;11.10;74.29
55456;BME280;63021;52.836;6.376;2022-11-02T06:01:25;101434.47;;;11.11;73.55
55456;BME280;63021;52.836;6.376;2022-11-02T06:03:50;101444.25;;;11.10;73.77
55456;BME280;63021;52.836;6.376;2022-11-02T06:06:16;101453.22;;;11.09;73.74
55456;BME280;63021;52.836;6.376;2022-11-02T06:08:41;101455.19;;;11.07;74.15
55456;BME280;63021;52.836;6.376;2022-11-02T06:11:07;101456.44;;;11.03;73.88
55456;BME280;63021;52.836;6.376;2022-11-02T06:13:33;101458.41;;;11.01;73.75
55456;BME280;63021;52.836;6.376;2022-11-02T06:15:59;101463.00;;;10.99;74.09
55456;BME280;63021;52.836;6.376;2022-11-02T06:18:24;101458.69;;;10.98;73.61
55456;BME280;63021;52.836;6.376;2022-11-02T06:20:49;101456.97;;;10.97;74.42
55456;BME280;63021;52.836;6.376;2022-11-02T06:23:15;101464.13;;;10.96;74.13
55456;BME280;63021;52.836;6.376;2022-11-02T06:25:42;101470.44;;;10.95;74.01
55456;BME280;63021;52.836;6.376;2022-11-02T06:28:08;101476.72;;;10.94;73.79
55456;BME280;63021;52.836;6.376;2022-11-02T06:30:33;101485.69;;;10.93;74.38
55456;BME280;63021;52.836;6.376;2022-11-02T06:32:59;101477.00;;;10.91;74.72
55456;BME280;63021;52.836;6.376;2022-11-02T06:35:24;101477.84;;;10.91;74.40
55456;BME280;63021;52.836;6.376;2022-11-02T06:37:49;101484.03;;;10.92;75.26
55456;BME280;63021;52.836;6.376;2022-11-02T06:40:15;101501.53;;;10.95;74.34
55456;BME280;63021;52.836;6.376;2022-11-02T06:42:40;101500.72;;;10.94;74.25
55456;BME280;63021;52.836;6.376;2022-11-02T06:45:05;101505.91;;;10.96;74.52
55456;BME280;63021;52.836;6.376;2022-11-02T06:47:32;101506.75;;;10.96;74.36
55456;BME280;63021;52.836;6.376;2022-11-02T06:49:57;101517.28;;;10.98;75.18
55456;BME280;63021;52.836;6.376;2022-11-02T06:52:23;101509.28;;;10.98;75.13
55456;BME280;63021;52.836;6.376;2022-11-02T06:54:48;101523.19;;;11.01;74.40
55456;BME280;63021;52.836;6.376;2022-11-02T06:57:13;101531.03;;;11.03;74.52
55456;BME280;63021;52.836;6.376;2022-11-02T06:59:39;101529.22;;;11.03;75.16
55456;BME280;63021;52.836;6.376;2022-11-02T07:02:04;101529.78;;;11.07;74.50
55456;BME280;63021;52.836;6.376;2022-11-02T07:04:29;101566.81;;;11.10;74.83
55456;BME280;63021;52.836;6.376;2022-11-02T07:06:55;101549.03;;;11.11;75.02
55456;BME280;63021;52.836;6.376;2022-11-02T07:09:20;101552.53;;;11.11;75.32
55456;BME280;63021;52.836;6.376;2022-11-02T07:11:45;101570.22;;;11.12;74.76
55456;BME280;63021;52.836;6.376;2022-11-02T07:14:13;101565.84;;;11.11;75.31
55456;BME280;63021;52.836;6.376;2022-11-02T07:16:38;101575.56;;;11.12;74.81
55456;BME280;63021;52.836;6.376;2022-11-02T07:19:04;101575.56;;;11.12;76.00
55456;BME280;63021;52.836;6.376;2022-11-02T07:21:29;101608.50;;;11.11;75.42
55456;BME280;63021;52.836;6.376;2022-11-02T07:23:54;101601.75;;;11.07;76.68
55456;BME280;63021;52.836;6.376;2022-11-02T07:26:19;101598.25;;;11.06;76.58
55456;BME280;63021;52.836;6.376;2022-11-02T07:28:45;101617.03;;;11.05;76.66
55456;BME280;63021;52.836;6.376;2022-11-02T07:31:11;101614.34;;;11.05;76.11
55456;BME280;63021;52.836;6.376;2022-11-02T07:33:36;101626.81;;;11.04;76.51
55456;BME280;63021;52.836;6.376;2022-11-02T07:36:02;101626.94;;;11.03;76.34
55456;BME280;63021;52.836;6.376;2022-11-02T07:38:29;101624.28;;;11.03;75.95
55456;BME280;63021;52.836;6.376;2022-11-02T07:40:54;101638.56;;;11.02;75.74
55456;BME280;63021;52.836;6.376;2022-11-02T07:43:19;101638.56;;;11.02;76.18
55456;BME280;63021;52.836;6.376;2022-11-02T07:45:45;101641.97;;;11.04;76.04
55456;BME280;63021;52.836;6.376;2022-11-02T07:48:10;101643.66;;;11.05;75.90
55456;BME280;63021;52.836;6.376;2022-11-02T07:50:35;101651.53;;;11.06;75.89
55456;BME280;63021;52.836;6.376;2022-11-02T07:53:00;101660.09;;;11.10;75.56
55456;BME280;63021;52.836;6.376;2022-11-02T07:55:27;101652.81;;;11.12;75.88
55456;BME280;63021;52.836;6.376;2022-11-02T07:57:59;101656.06;;;11.16;76.72
55456;BME280;63021;52.836;6.376;2022-11-02T08:00:25;101660.28;;;11.18;76.86
55456;BME280;63021;52.836;6.376;2022-11-02T08:02:54;101662.97;;;11.18;76.27
55456;BME280;63021;52.836;6.376;2022-11-02T08:05:20;101669.25;;;11.17;76.07
55456;BME280;63021;52.836;6.376;2022-11-02T08:07:45;101668.41;;;11.17;75.95
55456;BME280;63021;52.836;6.376;2022-11-02T08:10:10;101681.63;;;11.18;76.58
55456;BME280;63021;52.836;6.376;2022-11-02T08:12:36;101690.44;;;11.19;77.05
55456;BME280;63021;52.836;6.376;2022-11-02T08:15:01;101687.66;;;11.20;76.75
55456;BME280;63021;52.836;6.376;2022-11-02T08:17:26;101686.41;;;11.24;76.39
55456;BME280;63021;52.836;6.376;2022-11-02T08:19:51;101692.34;;;11.28;75.76
55456;BME280;63021;52.836;6.376;2022-11-02T08:22:17;101698.25;;;11.32;75.60
55456;BME280;63021;52.836;6.376;2022-11-02T08:24:42;101692.63;;;11.35;75.56
55456;BME280;63021;52.836;6.376;2022-11-02T08:27:07;101704.03;;;11.37;76.12
55456;BME280;63021;52.836;6.376;2022-11-02T08:29:32;101701.25;;;11.38;76.55
55456;BME280;63021;52.836;6.376;2022-11-02T08:31:59;101706.56;;;11.38;76.13
55456;BME280;63021;52.836;6.376;2022-11-02T08:34:24;101706.44;;;11.40;76.32
55456;BME280;63021;52.836;6.376;2022-11-02T08:36:49;101717.09;;;11.40;75.67
55456;BME280;63021;52.836;6.376;2022-11-02T08:39:14;101731.13;;;11.42;75.66
55456;BME280;63021;52.836;6.376;2022-11-02T08:41:40;101725.56;;;11.45;75.04
55456;BME280;63021;52.836;6.376;2022-11-02T08:44:05;101731.47;;;11.49;75.31
55456;BME280;63021;52.836;6.376;2022-11-02T08:46:30;101748.06;;;11.52;75.41
55456;BME280;63021;52.836;6.376;2022-11-02T08:48:55;101747.94;;;11.54;75.38
55456;BME280;63021;52.836;6.376;2022-11-02T08:51:21;101746.78;;;11.56;74.95
55456;BME280;63021;52.836;6.376;2022-11-02T08:53:46;101753.81;;;11.57;74.50
55456;BME280;63021;52.836;6.376;2022-11-02T08:56:11;101756.22;;;11.60;74.90
55456;BME280;63021;52.836;6.376;2022-11-02T08:58:37;101750.91;;;11.60;74.70
55456;BME280;63021;52.836;6.376;2022-11-02T09:01:02;101755.97;;;11.64;74.03
55456;BME280;63021;52.836;6.376;2022-11-02T09:03:27;101769.19;;;11.65;74.67
55456;BME280;63021;52.836;6.376;2022-11-02T09:06:00;101758.41;;;11.67;74.27
55456;BME280;63021;52.836;6.376;2022-11-02T09:08:25;101758.25;;;11.68;74.00
55456;BME280;63021;52.836;6.376;2022-11-02T09:10:51;101765.13;;;11.71;74.56
55456;BME280;63021;52.836;6.376;2022-11-02T09:13:17;101771.88;;;11.75;73.41
55456;BME280;63021;52.836;6.376;2022-11-02T09:15:47;101778.09;;;11.75;73.67
55456;BME280;63021;52.836;6.376;2022-11-02T09:18:13;101782.31;;;11.78;73.05
55456;BME280;63021;52.836;6.376;2022-11-02T09:20:38;101782.31;;;11.78;72.26
55456;BME280;63021;52.836;6.376;2022-11-02T09:23:03;101792.72;;;11.81;72.52
55456;BME280;63021;52.836;6.376;2022-11-02T09:25:29;101804.09;;;11.83;72.20
55456;BME280;63021;52.836;6.376;2022-11-02T09:27:55;101802.25;;;11.84;71.03
55456;BME280;63021;52.836;6.376;2022-11-02T09:30:20;101808.19;;;11.87;71.60
55456;BME280;63021;52.836;6.376;2022-11-02T09:32:52;101807.94;;;11.90;71.49
55456;BME280;63021;52.836;6.376;2022-11-02T09:35:18;101810.38;;;11.93;72.11
55456;BME280;63021;52.836;6.376;2022-11-02T09:37:43;101820.06;;;11.94;71.10
55456;BME280;63021;52.836;6.376;2022-11-02T09:40:09;101831.31;;;11.98;71.66
55456;BME280;63021;52.836;6.376;2022-11-02T09:42:38;101825.88;;;12.00;70.63
55456;BME280;63021;52.836;6.376;2022-11-02T09:45:12;101824.59;;;12.04;70.11
55456;BME280;63021;52.836;6.376;2022-11-02T09:47:41;101837.69;;;12.07;70.95
55456;BME280;63021;52.836;6.376;2022-11-02T09:50:08;101840.25;;;12.08;68.83
55456;BME280;63021;52.836;6.376;2022-11-02T09:52:37;101853.19;;;12.13;70.58
55456;BME280;63021;52.836;6.376;2022-11-02T09:55:05;101846.88;;;12.14;69.41
55456;BME280;63021;52.836;6.376;2022-11-02T09:57:36;101852.78;;;12.18;69.88
55456;BME280;63021;52.836;6.376;2022-11-02T10:00:03;101854.34;;;12.20;69.96
55456;BME280;63021;52.836;6.376;2022-11-02T10:12:37;101875.34;;;12.35;68.63
55456;BME280;63021;52.836;6.376;2022-11-02T10:17:54;101881.25;;;12.38;67.18
55456;BME280;63021;52.836;6.376;2022-11-02T10:20:40;101896.44;;;12.38;66.33
55456;BME280;63021;52.836;6.376;2022-11-02T10:23:10;101891.94;;;12.38;67.07
55456;BME280;63021;52.836;6.376;2022-11-02T10:25:39;101908.56;;;12.42;67.11
55456;BME280;63021;52.836;6.376;2022-11-02T10:28:17;101919.22;;;12.42;66.42
55456;BME280;63021;52.836;6.376;2022-11-02T10:30:43;101905.75;;;12.43;66.21
55456;BME280;63021;52.836;6.376;2022-11-02T10:33:12;101907.31;;;12.46;64.91
55456;BME280;63021;52.836;6.376;2022-11-02T10:35:52;101906.63;;;12.54;66.61
55456;BME280;63021;52.836;6.376;2022-11-02T10:38:26;101908.66;;;12.61;66.26
55456;BME280;63021;52.836;6.376;2022-11-02T10:51:33;101907.53;;;13.05;66.49
55456;BME280;63021;52.836;6.376;2022-11-02T10:53:58;101917.50;;;13.12;65.87
55456;BME280;63021;52.836;6.376;2022-11-02T10:56:30;101916.97;;;13.18;64.56
55456;BME280;63021;52.836;6.376;2022-11-02T11:01:27;101927.97;;;13.25;63.60
55456;BME280;63021;52.836;6.376;2022-11-02T11:04:00;101929.94;;;13.23;61.01
55456;BME280;63021;52.836;6.376;2022-11-02T11:06:29;101929.22;;;13.21;63.90
55456;BME280;63021;52.836;6.376;2022-11-02T11:08:59;101928.38;;;13.21;61.46
55456;BME280;63021;52.836;6.376;2022-11-02T11:16:18;101935.13;;;13.15;63.05
55456;BME280;63021;52.836;6.376;2022-11-02T11:18:53;101934.38;;;13.13;62.63
55456;BME280;63021;52.836;6.376;2022-11-02T11:21:19;101940.00;;;13.10;62.38
55456;BME280;63021;52.836;6.376;2022-11-02T11:23:44;101931.84;;;13.11;62.38
55456;BME280;63021;52.836;6.376;2022-11-02T11:26:15;101932.72;;;13.12;62.36
55456;BME280;63021;52.836;6.376;2022-11-02T11:28:53;101937.22;;;13.11;60.54
55456;BME280;63021;52.836;6.376;2022-11-02T11:31:19;101934.38;;;13.13;60.44
55456;BME280;63021;52.836;6.376;2022-11-02T11:33:45;101934.16;;;13.16;60.64
55456;BME280;63021;52.836;6.376;2022-11-02T11:36:19;101934.28;;;13.24;60.75
55456;BME280;63021;52.836;6.376;2022-11-02T11:38:45;101939.78;;;13.32;61.64
55456;BME280;63021;52.836;6.376;2022-11-02T11:41:11;101928.69;;;13.37;58.95
55456;BME280;63021;52.836;6.376;2022-11-02T11:43:37;101937.88;;;13.44;60.76
55456;BME280;63021;52.836;6.376;2022-11-02T11:46:05;101939.13;;;13.50;60.18
55456;BME280;63021;52.836;6.376;2022-11-02T11:51:00;101935.78;;;13.58;60.08
55456;BME280;63021;52.836;6.376;2022-11-02T11:53:26;101942.25;;;13.65;60.79
55456;BME280;63021;52.836;6.376;2022-11-02T11:55:56;101932.69;;;13.72;60.69
55456;BME280;63021;52.836;6.376;2022-11-02T11:58:25;101935.63;;;13.79;60.91
55456;BME280;63021;52.836;6.376;2022-11-02T12:03:28;101941.28;;;13.95;60.90
55456;BME280;63021;52.836;6.376;2022-11-02T12:14:12;101931.38;;;14.15;58.98
55456;BME280;63021;52.836;6.376;2022-11-02T12:19:28;101939.69;;;14.12;58.00
55456;BME280;63021;52.836;6.376;2022-11-02T12:22:07;101934.06;;;14.15;58.65
55456;BME280;63021;52.836;6.376;2022-11-02T12:42:56;101945.88;;;14.13;57.73
55456;BME280;63021;52.836;6.376;2022-11-02T12:48:02;101937.44;;;14.08;58.21
55456;BME280;63021;52.836;6.376;2022-11-02T12:55:42;101930.81;;;14.02;58.47
55456;BME280;63021;52.836;6.376;2022-11-02T12:58:21;101931.69;;;14.02;58.36
55456;BME280;63021;52.836;6.376;2022-11-02T13:00:48;101919.97;;;14.03;59.54
55456;BME280;63021;52.836;6.376;2022-11-02T13:05:42;101931.09;;;14.09;58.59
55456;BME280;63021;52.836;6.376;2022-11-02T13:10:38;101928.69;;;14.15;58.35
55456;BME280;63021;52.836;6.376;2022-11-02T13:13:04;101922.22;;;14.18;58.46
55456;BME280;63021;52.836;6.376;2022-11-02T13:15:34;101928.13;;;14.21;58.55
55456;BME280;63021;52.836;6.376;2022-11-02T13:18:04;101927.97;;;14.23;58.55
55456;BME280;63021;52.836;6.376;2022-11-02T13:20:34;101927.53;;;14.28;58.94
55456;BME280;63021;52.836;6.376;2022-11-02T13:25:49;101919.19;;;14.31;58.90
55456;BME280;63021;52.836;6.376;2022-11-02T13:31:00;101927.13;;;14.32;59.06
55456;BME280;63021;52.836;6.376;2022-11-02T13:33:47;101920.75;;;14.33;59.01
55456;BME280;63021;52.836;6.376;2022-11-02T13:36:13;101918.78;;;14.35;58.98
55456;BME280;63021;52.836;6.376;2022-11-02T13:38:40;101914.41;;;14.34;58.92
55456;BME280;63021;52.836;6.376;2022-11-02T13:41:13;101925.41;;;14.31;58.46
55456;BME280;63021;52.836;6.376;2022-11-02T13:48:49;101938.09;;;14.29;58.80
55456;BME280;63021;52.836;6.376;2022-11-02T13:53:59;101934.72;;;14.27;59.30
55456;BME280;63021;52.836;6.376;2022-11-02T13:56:26;101939.09;;;14.28;59.56
55456;BME280;63021;52.836;6.376;2022-11-02T13:58:53;101927.38;;;14.29;59.38
55456;BME280;63021;52.836;6.376;2022-11-02T14:01:20;101930.78;;;14.31;59.77
55456;BME280;63021;52.836;6.376;2022-11-02T14:03:56;101932.59;;;14.31;59.31
55456;BME280;63021;52.836;6.376;2022-11-02T14:06:22;101928.38;;;14.28;59.39
55456;BME280;63021;52.836;6.376;2022-11-02T14:11:22;101927.81;;;14.25;59.65
55456;BME280;63021;52.836;6.376;2022-11-02T14:21:45;101927.28;;;14.11;60.23
55456;BME280;63021;52.836;6.376;2022-11-02T14:32:04;101917.44;;;14.02;61.21
55456;BME280;63021;52.836;6.376;2022-11-02T14:34:47;101917.72;;;13.99;60.28
55456;BME280;63021;52.836;6.376;2022-11-02T14:37:25;101918.00;;;13.96;60.94
55456;BME280;63021;52.836;6.376;2022-11-02T14:47:29;101923.66;;;13.83;60.41
55456;BME280;63021;52.836;6.376;2022-11-02T14:49:56;101922.97;;;13.81;60.91
55456;BME280;63021;52.836;6.376;2022-11-02T14:52:26;101915.09;;;13.79;60.88
55456;BME280;63021;52.836;6.376;2022-11-02T14:57:31;101930.69;;;13.74;61.10
55456;BME280;63021;52.836;6.376;2022-11-02T14:59:59;101917.63;;;13.71;61.34
55456;BME280;63021;52.836;6.376;2022-11-02T15:04:52;101914.50;;;13.66;61.59
55456;BME280;63021;52.836;6.376;2022-11-02T15:07:19;101909.44;;;13.63;61.05
55456;BME280;63021;52.836;6.376;2022-11-02T15:09:53;101912.41;;;13.60;60.99
55456;BME280;63021;52.836;6.376;2022-11-02T15:12:38;101914.38;;;13.58;61.53
55456;BME280;63021;52.836;6.376;2022-11-02T15:17:49;101916.63;;;13.52;61.10
55456;BME280;63021;52.836;6.376;2022-11-02T15:22:41;101900.41;;;13.44;61.17
55456;BME280;63021;52.836;6.376;2022-11-02T15:27:34;101904.50;;;13.39;60.98
55456;BME280;63021;52.836;6.376;2022-11-02T15:30:04;101899.53;;;13.34;60.90
55456;BME280;63021;52.836;6.376;2022-11-02T15:32:30;101892.09;;;13.28;61.42
55456;BME280;63021;52.836;6.376;2022-11-02T15:34:58;101897.84;;;13.23;61.48
55456;BME280;63021;52.836;6.376;2022-11-02T15:37:25;101899.81;;;13.21;61.74
55456;BME280;63021;52.836;6.376;2022-11-02T15:39:53;101900.09;;;13.18;61.92